Anapurus, Brazil
Current Conditions -  °F | °C
As of 12:00 AM on Thursday 27 Nov 2014 (Local Time) from SBTE Reporting Station
Broken Clouds Broken Clouds  
Wind Chill: 82°   Ceiling: 9000
Heat Index: 86°   Visibility: 6mi
Dew Point: 70°   Wind: 5mph
Humidity: 66%   Direction: 290°WNW
Pressure: 29.77"   Gusts: NA
Location:  3.67°S, 43.12°W
Report Text: SBTE 270300Z 29004KT 9999 SCT030 BKN090 28/21 Q1008
Loading
Personal Weather Stations






























Interactive Weather Map New forecast layout! Learn more

10-Day Weather Forecast

Advertisements
Track Severe Weather on mobile